createdAt,value
2023-03-22T00:01:24.179Z,100884.34
2023-03-22T00:03:53.424Z,100866.03
2023-03-22T00:06:21.385Z,100867.59
2023-03-22T00:08:53.342Z,100861.22
2023-03-22T00:11:24.201Z,100857.63
2023-03-22T00:13:52.515Z,100844.97
2023-03-22T00:16:21.207Z,100856.97
2023-03-22T00:18:48.793Z,100852.31
2023-03-22T00:21:18.299Z,100855.63
2023-03-22T00:23:46.484Z,100847.22
2023-03-22T00:26:15.501Z,100857.22
2023-03-22T00:28:43.338Z,100848.53
2023-03-22T00:31:12.156Z,100844.03
2023-03-22T00:33:39.627Z,100835.47
2023-03-22T00:36:11.993Z,100840.69
2023-03-22T00:38:42.806Z,100838.81
2023-03-22T00:41:17.152Z,100833.97
2023-03-22T00:43:45.659Z,100832.13
2023-03-22T00:46:14.431Z,100831.63
2023-03-22T00:48:42.344Z,100828.19
2023-03-22T00:51:10.907Z,100823.84
2023-03-22T00:53:41.221Z,100811.47
2023-03-22T00:56:13.864Z,100812.59
2023-03-22T00:58:42.141Z,100816.47
2023-03-22T01:01:13.573Z,100807.34
2023-03-22T01:03:42.975Z,100799.13
2023-03-22T01:06:11.751Z,100795.84
2023-03-22T01:08:39.565Z,100785.22
2023-03-22T01:11:09.012Z,100779.59
2023-03-22T01:13:38.286Z,100771.31
2023-03-22T01:16:10.190Z,100764.69
2023-03-22T01:18:37.792Z,100771.34
2023-03-22T01:21:05.928Z,100768.19
2023-03-22T01:23:33.532Z,100765.59
2023-03-22T01:26:01.334Z,100761.75
2023-03-22T01:28:29.617Z,100751.56
2023-03-22T01:30:57.631Z,100744.69
2023-03-22T01:33:25.174Z,100746.28
2023-03-22T01:35:52.679Z,100737.38
2023-03-22T01:38:20.446Z,100727.94
2023-03-22T01:40:47.943Z,100726.13
2023-03-22T01:43:17.815Z,100722.25
2023-03-22T01:45:52.129Z,100719.75
2023-03-22T01:48:33.615Z,100709.47
2023-03-22T01:51:21.238Z,100706.06
2023-03-22T01:54:03.884Z,100702.81
2023-03-22T01:56:35.711Z,100693.91
2023-03-22T01:59:04.833Z,100698.06
2023-03-22T02:01:33.929Z,100697.50
2023-03-22T02:04:13.365Z,100690.38
2023-03-22T02:06:40.900Z,100689.03
2023-03-22T02:09:11.139Z,100681.72
2023-03-22T02:11:42.755Z,100662.69
2023-03-22T02:14:27.436Z,100672.41
2023-03-22T02:17:07.161Z,100654.75
2023-03-22T02:19:52.969Z,100657.91
2023-03-22T02:22:29.214Z,100652.63
2023-03-22T02:25:24.620Z,100652.00
2023-03-22T02:28:36.382Z,100642.69
2023-03-22T02:31:18.527Z,100640.38
2023-03-22T02:34:33.979Z,100637.50
2023-03-22T02:37:28.048Z,100626.41
2023-03-22T02:40:09.885Z,100636.31
2023-03-22T02:42:58.726Z,100632.81
2023-03-22T02:45:35.400Z,100633.50
2023-03-22T02:48:11.425Z,100619.44
2023-03-22T02:50:44.296Z,100620.50
2023-03-22T02:53:33.085Z,100616.22
2023-03-22T02:56:26.189Z,100611.41
2023-03-22T02:59:00.961Z,100616.63
2023-03-22T03:01:33.555Z,100607.78
2023-03-22T03:04:04.972Z,100613.78
2023-03-22T03:06:38.914Z,100604.38
2023-03-22T03:09:07.824Z,100614.78
2023-03-22T03:11:35.370Z,100608.16
2023-03-22T03:14:02.904Z,100617.44
2023-03-22T03:16:36.625Z,100608.78
2023-03-22T03:19:23.410Z,100609.13
2023-03-22T03:21:50.892Z,100611.59
2023-03-22T03:24:46.074Z,100620.56
2023-03-22T03:27:27.348Z,100617.28
2023-03-22T03:30:24.859Z,100615.41
2023-03-22T03:33:00.748Z,100606.72
2023-03-22T03:35:37.707Z,100603.28
2023-03-22T03:38:10.618Z,100599.72
2023-03-22T03:40:43.101Z,100605.00
2023-03-22T03:43:11.911Z,100600.09
2023-03-22T03:45:40.827Z,100610.25
2023-03-22T03:48:19.189Z,100604.78
2023-03-22T03:50:50.245Z,100606.88
2023-03-22T03:53:18.036Z,100613.69
2023-03-22T03:55:46.230Z,100607.66
2023-03-22T03:58:13.781Z,100599.97
2023-03-22T04:00:41.488Z,100607.34
2023-03-22T04:03:09.375Z,100610.28
2023-03-22T04:05:36.888Z,100611.53
2023-03-22T04:08:04.460Z,100601.97
2023-03-22T04:10:32.346Z,100592.56
2023-03-22T04:12:59.819Z,100602.19
2023-03-22T04:15:27.415Z,100589.66
2023-03-22T04:17:54.936Z,100580.19
2023-03-22T04:20:22.641Z,100596.63
2023-03-22T04:22:50.186Z,100594.13
2023-03-22T04:25:19.027Z,100582.72
2023-03-22T04:27:50.990Z,100583.03
2023-03-22T04:30:20.394Z,100576.53
2023-03-22T04:32:48.468Z,100573.84
2023-03-22T04:35:17.258Z,100582.09
2023-03-22T04:37:45.679Z,100569.22
2023-03-22T04:40:16.818Z,100567.44
2023-03-22T04:42:45.562Z,100573.91
2023-03-22T04:45:14.828Z,100576.47
2023-03-22T04:47:42.461Z,100574.63
2023-03-22T04:50:10.284Z,100573.34
2023-03-22T04:52:37.869Z,100567.78
2023-03-22T04:55:05.877Z,100558.66
2023-03-22T04:57:35.160Z,100557.16
2023-03-22T05:00:06.585Z,100554.72
2023-03-22T05:02:34.154Z,100545.84
2023-03-22T05:05:01.696Z,100551.84
2023-03-22T05:07:29.504Z,100547.38
2023-03-22T05:09:56.968Z,100543.78
2023-03-22T05:12:24.509Z,100554.88
2023-03-22T05:14:52.120Z,100548.19
2023-03-22T05:17:19.618Z,100541.63
2023-03-22T05:19:47.716Z,100554.38
2023-03-22T05:22:15.371Z,100555.28
2023-03-22T05:24:42.865Z,100553.16
2023-03-22T05:27:10.856Z,100549.56
2023-03-22T05:29:38.471Z,100560.59
2023-03-22T05:32:06.253Z,100548.97
2023-03-22T05:34:36.406Z,100541.47
2023-03-22T05:37:04.406Z,100544.13
2023-03-22T05:39:32.011Z,100543.78
2023-03-22T05:41:59.564Z,100543.69
2023-03-22T05:44:27.180Z,100536.91
2023-03-22T05:46:54.758Z,100532.31
2023-03-22T05:49:22.339Z,100523.53
2023-03-22T05:51:50.552Z,100522.25
2023-03-22T05:54:18.026Z,100523.22
2023-03-22T05:56:45.821Z,100515.00
2023-03-22T05:59:13.347Z,100517.94
2023-03-22T06:01:41.060Z,100512.03
2023-03-22T06:04:08.588Z,100516.28
2023-03-22T06:06:36.167Z,100516.09
2023-03-22T06:09:15.981Z,100519.41
2023-03-22T06:11:44.675Z,100517.78
2023-03-22T06:14:12.344Z,100526.66
2023-03-22T06:16:40.022Z,100521.50
2023-03-22T06:19:07.584Z,100524.69
2023-03-22T06:21:35.114Z,100521.00
2023-03-22T06:24:02.701Z,100518.66
2023-03-22T06:26:30.313Z,100524.09
2023-03-22T06:28:57.937Z,100518.47
2023-03-22T06:31:25.444Z,100527.06
2023-03-22T06:33:54.846Z,100516.94
2023-03-22T06:36:23.393Z,100521.44
2023-03-22T06:38:51.142Z,100523.56
2023-03-22T06:41:18.775Z,100530.69
2023-03-22T06:43:46.320Z,100523.06
2023-03-22T06:46:14.005Z,100521.66
2023-03-22T06:48:41.631Z,100522.53
2023-03-22T06:51:09.455Z,100524.16
2023-03-22T06:53:37.244Z,100529.81
2023-03-22T06:56:05.413Z,100534.13
2023-03-22T06:58:33.049Z,100530.94
2023-03-22T07:01:00.651Z,100531.75
2023-03-22T07:03:28.213Z,100524.94
2023-03-22T07:06:02.484Z,100523.81
2023-03-22T07:08:30.276Z,100523.81
2023-03-22T07:10:57.917Z,100521.13
2023-03-22T07:13:25.558Z,100520.56
2023-03-22T07:16:02.738Z,100529.41
2023-03-22T07:18:31.007Z,100527.25
2023-03-22T07:20:58.585Z,100523.94
2023-03-22T07:23:26.483Z,100523.78
2023-03-22T07:25:55.930Z,100514.53
2023-03-22T07:28:23.612Z,100511.63
2023-03-22T07:30:51.154Z,100516.47
2023-03-22T07:33:18.728Z,100516.22
2023-03-22T07:35:46.311Z,100531.00
2023-03-22T07:38:14.084Z,100516.34
2023-03-22T07:40:41.932Z,100508.06
2023-03-22T07:43:12.005Z,100507.28
2023-03-22T07:45:40.978Z,100509.31
2023-03-22T07:48:11.267Z,100509.91
2023-03-22T07:50:39.430Z,100503.81
2023-03-22T07:53:07.313Z,100506.22
2023-03-22T07:55:34.921Z,100515.78
2023-03-22T07:58:02.745Z,100504.75
2023-03-22T08:00:30.665Z,100501.44
2023-03-22T08:02:58.286Z,100513.44
2023-03-22T08:05:26.521Z,100516.84
2023-03-22T08:07:54.404Z,100519.50
2023-03-22T08:10:21.974Z,100521.63
2023-03-22T08:12:49.529Z,100509.72
2023-03-22T08:15:17.179Z,100513.41
2023-03-22T08:17:44.812Z,100518.19
2023-03-22T08:20:13.487Z,100517.59
2023-03-22T08:22:41.050Z,100512.34
2023-03-22T08:25:08.832Z,100517.06
2023-03-22T08:27:36.389Z,100508.44
2023-03-22T08:30:05.688Z,100511.53
2023-03-22T08:32:34.683Z,100527.75
2023-03-22T08:35:02.207Z,100516.38
2023-03-22T08:37:29.725Z,100503.56
2023-03-22T08:39:57.268Z,100510.63
2023-03-22T08:42:24.799Z,100527.47
2023-03-22T08:44:52.575Z,100518.25
2023-03-22T08:47:20.080Z,100518.78
2023-03-22T08:49:47.811Z,100502.78
2023-03-22T08:52:15.369Z,100525.81
2023-03-22T08:54:42.899Z,100502.19
2023-03-22T08:57:11.537Z,100509.47
2023-03-22T08:59:39.018Z,100509.38
2023-03-22T09:02:06.925Z,100513.31
2023-03-22T09:04:34.785Z,100518.19
2023-03-22T09:07:02.791Z,100498.59
2023-03-22T09:09:30.292Z,100523.31
2023-03-22T09:11:58.086Z,100519.16
2023-03-22T09:14:25.672Z,100520.41
2023-03-22T09:16:53.241Z,100521.69
2023-03-22T09:19:20.821Z,100519.75
2023-03-22T09:21:48.440Z,100518.84
2023-03-22T09:24:16.010Z,100533.34
2023-03-22T09:26:43.603Z,100527.31
2023-03-22T09:29:11.524Z,100517.03
2023-03-22T09:31:39.274Z,100513.59
2023-03-22T09:34:06.977Z,100505.91
2023-03-22T09:36:34.695Z,100507.00
2023-03-22T09:39:07.229Z,100508.66
2023-03-22T09:41:43.334Z,100498.75
2023-03-22T09:44:23.254Z,100509.56
2023-03-22T09:46:54.972Z,100516.16
2023-03-22T09:49:27.937Z,100494.69
2023-03-22T09:51:56.679Z,100501.34
2023-03-22T09:54:36.212Z,100509.56
2023-03-22T09:57:16.061Z,100511.78
2023-03-22T10:00:21.459Z,100505.91
2023-03-22T10:02:58.949Z,100507.59
2023-03-22T10:05:48.389Z,100505.75
2023-03-22T10:08:28.249Z,100513.81
2023-03-22T10:10:55.902Z,100504.22
2023-03-22T10:13:51.760Z,100498.59
2023-03-22T10:16:33.123Z,100506.47
2023-03-22T10:19:08.012Z,100512.34
2023-03-22T10:21:36.831Z,100502.44
2023-03-22T10:24:14.076Z,100506.22
2023-03-22T10:26:45.945Z,100497.66
2023-03-22T10:29:23.074Z,100501.16
2023-03-22T10:31:50.999Z,100523.28
2023-03-22T10:34:27.935Z,100509.56
2023-03-22T10:36:57.007Z,100518.78
2023-03-22T10:39:34.175Z,100512.50
2023-03-22T10:42:05.792Z,100505.81
2023-03-22T10:44:40.839Z,100511.13
2023-03-22T10:47:11.291Z,100522.66
2023-03-22T10:49:48.285Z,100494.75
2023-03-22T10:52:24.842Z,100503.91
2023-03-22T10:54:52.767Z,100478.03
2023-03-22T10:57:20.334Z,100480.28
2023-03-22T10:59:51.131Z,100488.94
2023-03-22T11:02:23.481Z,100500.09
2023-03-22T11:04:53.594Z,100482.19
2023-03-22T11:07:33.242Z,100489.81
2023-03-22T11:10:13.318Z,100488.81
2023-03-22T11:12:46.352Z,100474.63
2023-03-22T11:16:12.425Z,100495.31
2023-03-22T11:18:42.728Z,100486.75
2023-03-22T11:21:16.595Z,100491.34
2023-03-22T11:24:09.602Z,100460.00
2023-03-22T11:26:40.854Z,100480.41
2023-03-22T11:29:13.809Z,100482.19
2023-03-22T11:31:57.246Z,100499.81
2023-03-22T11:34:28.243Z,100481.38
2023-03-22T11:36:57.665Z,100494.84
2023-03-22T11:39:28.346Z,100500.13
2023-03-22T11:42:01.492Z,100505.16
2023-03-22T11:44:35.506Z,100510.44
2023-03-22T11:47:05.709Z,100505.69
2023-03-22T11:49:46.392Z,100517.34
2023-03-22T11:52:19.659Z,100530.97
2023-03-22T11:54:48.973Z,100520.53
2023-03-22T11:57:22.586Z,100526.16
2023-03-22T11:59:50.108Z,100526.03
2023-03-22T12:02:24.673Z,100525.03
2023-03-22T12:05:00.741Z,100516.16
2023-03-22T12:07:31.255Z,100508.59
2023-03-22T12:10:38.635Z,100511.94
2023-03-22T12:13:12.385Z,100507.31
2023-03-22T12:15:48.295Z,100512.81
2023-03-22T12:18:18.388Z,100511.13
2023-03-22T12:20:55.545Z,100516.19
2023-03-22T12:23:26.195Z,100511.63
2023-03-22T12:26:11.676Z,100513.50
2023-03-22T12:28:44.741Z,100516.56
2023-03-22T12:31:21.661Z,100515.53
2023-03-22T12:33:53.250Z,100498.81
2023-03-22T12:36:28.084Z,100495.25
2023-03-22T12:38:58.757Z,100500.38
2023-03-22T12:41:33.157Z,100484.47
2023-03-22T12:44:19.603Z,100498.59
2023-03-22T12:46:50.932Z,100494.13
2023-03-22T12:49:28.963Z,100483.63
2023-03-22T12:52:07.430Z,100488.28
2023-03-22T12:54:35.015Z,100491.97
2023-03-22T12:57:03.122Z,100497.13
2023-03-22T12:59:32.442Z,100490.88
2023-03-22T13:02:05.269Z,100480.16
2023-03-22T13:04:50.056Z,100487.06
2023-03-22T13:07:34.299Z,100501.63
2023-03-22T13:10:22.855Z,100491.03
2023-03-22T13:13:26.636Z,100491.66
2023-03-22T13:15:56.813Z,100488.56
2023-03-22T13:18:33.570Z,100496.72
2023-03-22T13:21:16.524Z,100503.78
2023-03-22T13:24:11.609Z,100496.94
2023-03-22T13:26:47.228Z,100492.28
2023-03-22T13:29:26.593Z,100492.09
2023-03-22T13:32:07.176Z,100498.56
2023-03-22T13:34:46.805Z,100487.84
2023-03-22T13:37:34.986Z,100490.47
2023-03-22T13:40:13.495Z,100495.50
2023-03-22T13:42:42.351Z,100497.53
2023-03-22T13:45:31.501Z,100498.19
2023-03-22T13:48:29.150Z,100482.97
2023-03-22T13:50:58.268Z,100479.28
2023-03-22T13:53:31.433Z,100487.91
2023-03-22T13:56:04.689Z,100477.41
2023-03-22T13:58:32.997Z,100482.84
2023-03-22T14:01:01.028Z,100483.44
2023-03-22T14:03:36.846Z,100475.88
2023-03-22T14:06:11.957Z,100482.31
2023-03-22T14:08:42.812Z,100475.97
2023-03-22T14:11:45.046Z,100472.22
2023-03-22T14:14:19.226Z,100473.31
2023-03-22T14:16:55.896Z,100460.25
2023-03-22T14:19:28.030Z,100461.03
